sensor_id;sensor_type;location;lat;lon;timestamp;temperature;humidity
851;DHT22;412;51.400;7.480;2023-07-29T00:00:43;21.30;99.90
851;DHT22;412;51.400;7.480;2023-07-29T00:03:09;21.30;99.90
851;DHT22;412;51.400;7.480;2023-07-29T00:05:37;21.30;99.90
851;DHT22;412;51.400;7.480;2023-07-29T00:08:03;21.30;99.90
851;DHT22;412;51.400;7.480;2023-07-29T00:10:31;21.30;99.90
851;DHT22;412;51.400;7.480;2023-07-29T00:12:56;21.40;99.90
851;DHT22;412;51.400;7.480;2023-07-29T00:15:22;21.40;99.90
851;DHT22;412;51.400;7.480;2023-07-29T00:17:48;21.40;99.90
851;DHT22;412;51.400;7.480;2023-07-29T00:20:15;21.40;99.90
851;DHT22;412;51.400;7.480;2023-07-29T00:22:41;21.40;99.90
851;DHT22;412;51.400;7.480;2023-07-29T00:25:07;21.50;99.90
851;DHT22;412;51.400;7.480;2023-07-29T00:27:33;21.40;99.90
851;DHT22;412;51.400;7.480;2023-07-29T00:29:58;21.40;99.90
851;DHT22;412;51.400;7.480;2023-07-29T00:32:24;21.50;99.90
851;DHT22;412;51.400;7.480;2023-07-29T00:34:50;21.40;99.90
851;DHT22;412;51.400;7.480;2023-07-29T00:37:16;21.40;99.90
851;DHT22;412;51.400;7.480;2023-07-29T00:39:42;21.30;99.90
851;DHT22;412;51.400;7.480;2023-07-29T00:42:08;21.40;99.90
851;DHT22;412;51.400;7.480;2023-07-29T00:44:34;21.40;99.90
851;DHT22;412;51.400;7.480;2023-07-29T00:47:02;21.30;99.90
851;DHT22;412;51.400;7.480;2023-07-29T00:49:29;21.30;99.90
851;DHT22;412;51.400;7.480;2023-07-29T00:51:55;21.30;99.90
851;DHT22;412;51.400;7.480;2023-07-29T00:54:21;21.30;99.90
851;DHT22;412;51.400;7.480;2023-07-29T00:56:47;21.20;99.90
851;DHT22;412;51.400;7.480;2023-07-29T00:59:13;21.20;99.90
851;DHT22;412;51.400;7.480;2023-07-29T01:01:39;21.20;99.90
851;DHT22;412;51.400;7.480;2023-07-29T01:04:05;21.20;99.90
851;DHT22;412;51.400;7.480;2023-07-29T01:09:25;21.20;99.90
851;DHT22;412;51.400;7.480;2023-07-29T01:12:18;21.20;99.90
851;DHT22;412;51.400;7.480;2023-07-29T01:14:51;21.20;99.90
851;DHT22;412;51.400;7.480;2023-07-29T01:17:26;21.20;99.90
851;DHT22;412;51.400;7.480;2023-07-29T01:22:33;21.20;99.90
851;DHT22;412;51.400;7.480;2023-07-29T01:24:59;21.20;99.90
851;DHT22;412;51.400;7.480;2023-07-29T01:27:25;21.20;99.90
851;DHT22;412;51.400;7.480;2023-07-29T01:29:55;21.20;99.90
851;DHT22;412;51.400;7.480;2023-07-29T01:35:29;21.20;99.90
851;DHT22;412;51.400;7.480;2023-07-29T01:38:03;21.20;99.90
851;DHT22;412;51.400;7.480;2023-07-29T01:40:30;21.20;99.90
851;DHT22;412;51.400;7.480;2023-07-29T01:42:57;21.20;99.90
851;DHT22;412;51.400;7.480;2023-07-29T01:45:25;21.20;99.90
851;DHT22;412;51.400;7.480;2023-07-29T01:47:51;21.20;99.90
851;DHT22;412;51.400;7.480;2023-07-29T01:50:17;21.20;99.90
851;DHT22;412;51.400;7.480;2023-07-29T01:52:43;21.10;99.90
851;DHT22;412;51.400;7.480;2023-07-29T01:55:09;21.10;99.90
851;DHT22;412;51.400;7.480;2023-07-29T01:57:35;21.10;99.90
851;DHT22;412;51.400;7.480;2023-07-29T02:00:01;21.10;99.90
851;DHT22;412;51.400;7.480;2023-07-29T02:02:27;21.10;99.90
851;DHT22;412;51.400;7.480;2023-07-29T02:04:53;21.10;99.90
851;DHT22;412;51.400;7.480;2023-07-29T02:07:24;21.10;99.90
851;DHT22;412;51.400;7.480;2023-07-29T02:09:51;21.10;99.90
851;DHT22;412;51.400;7.480;2023-07-29T02:12:17;21.10;99.90
851;DHT22;412;51.400;7.480;2023-07-29T02:14:43;21.10;99.90
851;DHT22;412;51.400;7.480;2023-07-29T02:17:09;21.10;99.90
851;DHT22;412;51.400;7.480;2023-07-29T02:19:34;21.10;99.90
851;DHT22;412;51.400;7.480;2023-07-29T02:22:00;21.10;99.90
851;DHT22;412;51.400;7.480;2023-07-29T02:24:26;21.10;99.90
851;DHT22;412;51.400;7.480;2023-07-29T02:26:51;21.10;99.90
851;DHT22;412;51.400;7.480;2023-07-29T02:29:17;21.20;99.90
851;DHT22;412;51.400;7.480;2023-07-29T02:31:43;21.10;99.90
851;DHT22;412;51.400;7.480;2023-07-29T02:34:09;21.20;99.90
851;DHT22;412;51.400;7.480;2023-07-29T02:36:35;21.20;99.90
851;DHT22;412;51.400;7.480;2023-07-29T02:39:01;21.20;99.90
851;DHT22;412;51.400;7.480;2023-07-29T02:41:26;21.20;99.90
851;DHT22;412;51.400;7.480;2023-07-29T02:43:52;21.10;99.90
851;DHT22;412;51.400;7.480;2023-07-29T02:46:18;21.10;99.90
851;DHT22;412;51.400;7.480;2023-07-29T02:48:44;21.10;99.90
851;DHT22;412;51.400;7.480;2023-07-29T02:51:10;21.10;99.90
851;DHT22;412;51.400;7.480;2023-07-29T02:53:36;21.10;99.90
851;DHT22;412;51.400;7.480;2023-07-29T02:56:03;21.10;99.90
851;DHT22;412;51.400;7.480;2023-07-29T02:58:29;21.10;99.90
851;DHT22;412;51.400;7.480;2023-07-29T03:01:05;21.10;99.90
851;DHT22;412;51.400;7.480;2023-07-29T03:03:31;21.10;99.90
851;DHT22;412;51.400;7.480;2023-07-29T03:06:02;21.10;99.90
851;DHT22;412;51.400;7.480;2023-07-29T03:08:28;21.10;99.90
851;DHT22;412;51.400;7.480;2023-07-29T03:10:55;21.10;99.90
851;DHT22;412;51.400;7.480;2023-07-29T03:13:21;21.10;99.90
851;DHT22;412;51.400;7.480;2023-07-29T03:15:46;21.20;99.90
851;DHT22;412;51.400;7.480;2023-07-29T03:18:12;21.10;99.90
851;DHT22;412;51.400;7.480;2023-07-29T03:20:38;21.20;99.90
851;DHT22;412;51.400;7.480;2023-07-29T03:23:04;21.10;99.90
851;DHT22;412;51.400;7.480;2023-07-29T03:25:29;21.10;99.90
851;DHT22;412;51.400;7.480;2023-07-29T03:27:55;21.10;99.90
851;DHT22;412;51.400;7.480;2023-07-29T03:30:21;21.10;99.90
851;DHT22;412;51.400;7.480;2023-07-29T03:32:48;21.10;99.90
851;DHT22;412;51.400;7.480;2023-07-29T03:35:14;21.10;99.90
851;DHT22;412;51.400;7.480;2023-07-29T03:37:40;21.10;99.90
851;DHT22;412;51.400;7.480;2023-07-29T03:40:07;21.10;99.90
851;DHT22;412;51.400;7.480;2023-07-29T03:42:34;21.10;99.90
851;DHT22;412;51.400;7.480;2023-07-29T03:45:00;21.10;99.90
851;DHT22;412;51.400;7.480;2023-07-29T03:47:26;21.10;99.90
851;DHT22;412;51.400;7.480;2023-07-29T03:49:52;21.10;99.90
851;DHT22;412;51.400;7.480;2023-07-29T03:52:18;21.10;99.90
851;DHT22;412;51.400;7.480;2023-07-29T03:54:44;21.10;99.90
851;DHT22;412;51.400;7.480;2023-07-29T03:57:09;21.10;99.90
851;DHT22;412;51.400;7.480;2023-07-29T03:59:35;21.10;99.90
851;DHT22;412;51.400;7.480;2023-07-29T04:02:01;21.10;99.90
851;DHT22;412;51.400;7.480;2023-07-29T04:04:26;21.10;99.90
851;DHT22;412;51.400;7.480;2023-07-29T04:06:52;21.10;99.90
851;DHT22;412;51.400;7.480;2023-07-29T04:09:18;21.10;99.90
851;DHT22;412;51.400;7.480;2023-07-29T04:11:44;21.10;99.90
851;DHT22;412;51.400;7.480;2023-07-29T04:14:09;21.10;99.90
851;DHT22;412;51.400;7.480;2023-07-29T04:16:35;21.10;99.90
851;DHT22;412;51.400;7.480;2023-07-29T04:19:01;21.00;99.90
851;DHT22;412;51.400;7.480;2023-07-29T04:21:26;21.00;99.90
851;DHT22;412;51.400;7.480;2023-07-29T04:23:52;21.10;99.90
851;DHT22;412;51.400;7.480;2023-07-29T04:26:18;21.10;99.90
851;DHT22;412;51.400;7.480;2023-07-29T04:28:44;21.10;99.90
851;DHT22;412;51.400;7.480;2023-07-29T04:31:09;21.10;99.90
851;DHT22;412;51.400;7.480;2023-07-29T04:33:35;21.10;99.90
851;DHT22;412;51.400;7.480;2023-07-29T04:36:01;21.10;99.90
851;DHT22;412;51.400;7.480;2023-07-29T04:38:31;21.10;99.90
851;DHT22;412;51.400;7.480;2023-07-29T04:41:00;21.10;99.90
851;DHT22;412;51.400;7.480;2023-07-29T04:43:31;21.10;99.90
851;DHT22;412;51.400;7.480;2023-07-29T04:45:57;21.00;99.90
851;DHT22;412;51.400;7.480;2023-07-29T04:48:23;21.10;99.90
851;DHT22;412;51.400;7.480;2023-07-29T04:50:49;21.10;99.90
851;DHT22;412;51.400;7.480;2023-07-29T04:53:14;21.10;99.90
851;DHT22;412;51.400;7.480;2023-07-29T04:55:43;21.10;99.90
851;DHT22;412;51.400;7.480;2023-07-29T04:58:09;21.10;99.90
851;DHT22;412;51.400;7.480;2023-07-29T05:00:35;21.10;99.90
851;DHT22;412;51.400;7.480;2023-07-29T05:03:01;21.20;99.90
851;DHT22;412;51.400;7.480;2023-07-29T05:05:27;21.20;99.90
851;DHT22;412;51.400;7.480;2023-07-29T05:07:53;21.20;99.90
851;DHT22;412;51.400;7.480;2023-07-29T05:10:18;21.20;99.90
851;DHT22;412;51.400;7.480;2023-07-29T05:12:44;21.20;99.90
851;DHT22;412;51.400;7.480;2023-07-29T05:15:10;21.30;99.90
851;DHT22;412;51.400;7.480;2023-07-29T05:17:36;21.30;99.90
851;DHT22;412;51.400;7.480;2023-07-29T05:20:02;21.30;99.90
851;DHT22;412;51.400;7.480;2023-07-29T05:22:28;21.30;99.90
851;DHT22;412;51.400;7.480;2023-07-29T05:24:54;21.30;99.90
851;DHT22;412;51.400;7.480;2023-07-29T05:27:19;21.30;99.90
851;DHT22;412;51.400;7.480;2023-07-29T05:29:45;21.30;99.90
851;DHT22;412;51.400;7.480;2023-07-29T05:32:11;21.30;99.90
851;DHT22;412;51.400;7.480;2023-07-29T05:34:37;21.30;99.90
851;DHT22;412;51.400;7.480;2023-07-29T05:37:02;21.30;99.90
851;DHT22;412;51.400;7.480;2023-07-29T05:39:29;21.30;99.90
851;DHT22;412;51.400;7.480;2023-07-29T05:41:55;21.30;99.90
851;DHT22;412;51.400;7.480;2023-07-29T05:44:21;21.30;99.90
851;DHT22;412;51.400;7.480;2023-07-29T05:46:46;21.30;99.90
851;DHT22;412;51.400;7.480;2023-07-29T05:49:13;21.20;99.90
851;DHT22;412;51.400;7.480;2023-07-29T05:51:38;21.20;99.90
851;DHT22;412;51.400;7.480;2023-07-29T05:54:04;21.20;99.90
851;DHT22;412;51.400;7.480;2023-07-29T05:56:30;21.30;99.90
851;DHT22;412;51.400;7.480;2023-07-29T05:58:57;21.20;99.90
851;DHT22;412;51.400;7.480;2023-07-29T06:01:23;21.20;99.90
851;DHT22;412;51.400;7.480;2023-07-29T06:03:48;21.20;99.90
851;DHT22;412;51.400;7.480;2023-07-29T06:06:15;21.30;99.90
851;DHT22;412;51.400;7.480;2023-07-29T06:08:41;21.30;99.90
851;DHT22;412;51.400;7.480;2023-07-29T06:11:06;21.20;99.90
851;DHT22;412;51.400;7.480;2023-07-29T06:13:32;21.20;99.90
851;DHT22;412;51.400;7.480;2023-07-29T06:16:01;21.20;99.90
851;DHT22;412;51.400;7.480;2023-07-29T06:18:26;21.20;99.90
851;DHT22;412;51.400;7.480;2023-07-29T06:20:52;21.10;99.90
851;DHT22;412;51.400;7.480;2023-07-29T06:23:18;21.10;99.90
851;DHT22;412;51.400;7.480;2023-07-29T06:25:44;21.10;99.90
851;DHT22;412;51.400;7.480;2023-07-29T06:28:10;21.10;99.90
851;DHT22;412;51.400;7.480;2023-07-29T06:30:35;21.10;99.90
851;DHT22;412;51.400;7.480;2023-07-29T06:33:01;21.10;99.90
851;DHT22;412;51.400;7.480;2023-07-29T06:35:29;21.10;99.90
851;DHT22;412;51.400;7.480;2023-07-29T06:37:54;21.10;99.90
851;DHT22;412;51.400;7.480;2023-07-29T06:40:20;21.10;99.90
851;DHT22;412;51.400;7.480;2023-07-29T06:42:46;21.10;99.90
851;DHT22;412;51.400;7.480;2023-07-29T06:45:12;21.10;99.90
851;DHT22;412;51.400;7.480;2023-07-29T06:47:38;21.10;99.90
851;DHT22;412;51.400;7.480;2023-07-29T06:50:04;21.10;99.90
851;DHT22;412;51.400;7.480;2023-07-29T06:52:30;21.10;99.90
851;DHT22;412;51.400;7.480;2023-07-29T06:54:55;21.10;99.90
851;DHT22;412;51.400;7.480;2023-07-29T06:57:21;21.10;99.90
851;DHT22;412;51.400;7.480;2023-07-29T06:59:47;21.00;99.90
851;DHT22;412;51.400;7.480;2023-07-29T07:02:13;21.10;99.90
851;DHT22;412;51.400;7.480;2023-07-29T07:04:38;21.00;99.90
851;DHT22;412;51.400;7.480;2023-07-29T07:07:04;20.90;99.90
851;DHT22;412;51.400;7.480;2023-07-29T07:09:30;20.80;99.90
851;DHT22;412;51.400;7.480;2023-07-29T07:11:56;20.80;99.90
851;DHT22;412;51.400;7.480;2023-07-29T07:14:22;20.90;99.90
851;DHT22;412;51.400;7.480;2023-07-29T07:16:47;20.90;99.90
851;DHT22;412;51.400;7.480;2023-07-29T07:19:13;20.90;99.90
851;DHT22;412;51.400;7.480;2023-07-29T07:21:39;20.90;99.90
851;DHT22;412;51.400;7.480;2023-07-29T07:24:05;20.90;99.90
851;DHT22;412;51.400;7.480;2023-07-29T07:26:31;20.90;99.90
851;DHT22;412;51.400;7.480;2023-07-29T07:28:57;20.90;99.90
851;DHT22;412;51.400;7.480;2023-07-29T07:31:23;20.90;99.90
851;DHT22;412;51.400;7.480;2023-07-29T07:33:48;21.00;99.90
851;DHT22;412;51.400;7.480;2023-07-29T07:36:14;21.10;99.90
851;DHT22;412;51.400;7.480;2023-07-29T07:38:41;21.20;99.90
851;DHT22;412;51.400;7.480;2023-07-29T07:41:10;21.30;99.90
851;DHT22;412;51.400;7.480;2023-07-29T07:43:36;21.50;99.90
851;DHT22;412;51.400;7.480;2023-07-29T07:46:02;21.60;99.90
851;DHT22;412;51.400;7.480;2023-07-29T07:48:28;21.70;99.90
851;DHT22;412;51.400;7.480;2023-07-29T07:50:54;21.90;99.90
851;DHT22;412;51.400;7.480;2023-07-29T07:53:20;22.00;99.90
851;DHT22;412;51.400;7.480;2023-07-29T07:55:46;22.20;99.90
851;DHT22;412;51.400;7.480;2023-07-29T07:58:12;22.30;99.90
851;DHT22;412;51.400;7.480;2023-07-29T08:00:38;22.40;99.90
851;DHT22;412;51.400;7.480;2023-07-29T08:03:04;22.40;99.90
851;DHT22;412;51.400;7.480;2023-07-29T08:05:30;22.60;99.90
851;DHT22;412;51.400;7.480;2023-07-29T08:07:56;22.70;99.90
851;DHT22;412;51.400;7.480;2023-07-29T08:10:22;22.70;99.90
851;DHT22;412;51.400;7.480;2023-07-29T08:12:48;22.80;99.90
851;DHT22;412;51.400;7.480;2023-07-29T08:15:14;22.90;99.90
851;DHT22;412;51.400;7.480;2023-07-29T08:17:40;23.00;99.90
851;DHT22;412;51.400;7.480;2023-07-29T08:20:06;23.00;99.90
851;DHT22;412;51.400;7.480;2023-07-29T08:22:32;23.00;99.90
851;DHT22;412;51.400;7.480;2023-07-29T08:24:57;23.00;99.90
851;DHT22;412;51.400;7.480;2023-07-29T08:27:23;22.90;99.90
851;DHT22;412;51.400;7.480;2023-07-29T08:29:49;22.90;99.90
851;DHT22;412;51.400;7.480;2023-07-29T08:32:15;22.80;99.90
851;DHT22;412;51.400;7.480;2023-07-29T08:34:41;22.80;99.90
851;DHT22;412;51.400;7.480;2023-07-29T08:37:06;22.90;99.90
851;DHT22;412;51.400;7.480;2023-07-29T08:39:32;22.90;99.90
851;DHT22;412;51.400;7.480;2023-07-29T08:42:02;23.00;99.90
851;DHT22;412;51.400;7.480;2023-07-29T08:44:42;23.00;99.90
851;DHT22;412;51.400;7.480;2023-07-29T08:47:09;23.10;99.90
851;DHT22;412;51.400;7.480;2023-07-29T08:49:36;23.10;99.90
851;DHT22;412;51.400;7.480;2023-07-29T08:52:03;23.10;99.90
851;DHT22;412;51.400;7.480;2023-07-29T08:54:29;23.10;99.90
851;DHT22;412;51.400;7.480;2023-07-29T08:56:56;23.20;99.90
851;DHT22;412;51.400;7.480;2023-07-29T08:59:22;23.30;99.90
851;DHT22;412;51.400;7.480;2023-07-29T09:01:49;23.40;99.90
851;DHT22;412;51.400;7.480;2023-07-29T09:04:15;23.50;99.90
851;DHT22;412;51.400;7.480;2023-07-29T09:06:43;23.60;99.90
851;DHT22;412;51.400;7.480;2023-07-29T09:09:09;23.80;99.90
851;DHT22;412;51.400;7.480;2023-07-29T09:11:35;23.90;99.90
851;DHT22;412;51.400;7.480;2023-07-29T09:14:01;23.80;99.90
851;DHT22;412;51.400;7.480;2023-07-29T09:16:27;23.80;99.90
851;DHT22;412;51.400;7.480;2023-07-29T09:18:53;23.70;99.90
851;DHT22;412;51.400;7.480;2023-07-29T09:21:24;23.80;99.90
851;DHT22;412;51.400;7.480;2023-07-29T09:23:54;23.70;99.90
851;DHT22;412;51.400;7.480;2023-07-29T09:26:27;23.70;99.90
851;DHT22;412;51.400;7.480;2023-07-29T09:28:55;23.70;99.90
851;DHT22;412;51.400;7.480;2023-07-29T09:31:22;23.80;99.90
851;DHT22;412;51.400;7.480;2023-07-29T09:33:49;24.00;99.90
851;DHT22;412;51.400;7.480;2023-07-29T09:36:15;24.10;99.90
851;DHT22;412;51.400;7.480;2023-07-29T09:38:41;24.20;99.90
851;DHT22;412;51.400;7.480;2023-07-29T09:41:07;24.30;99.90
851;DHT22;412;51.400;7.480;2023-07-29T09:43:34;24.50;99.90
851;DHT22;412;51.400;7.480;2023-07-29T09:46:03;24.60;99.90
851;DHT22;412;51.400;7.480;2023-07-29T09:48:34;24.70;99.90
851;DHT22;412;51.400;7.480;2023-07-29T09:51:03;24.90;99.90
851;DHT22;412;51.400;7.480;2023-07-29T09:53:42;24.90;99.90
851;DHT22;412;51.400;7.480;2023-07-29T09:56:08;24.90;99.90
851;DHT22;412;51.400;7.480;2023-07-29T09:58:34;24.90;99.90
851;DHT22;412;51.400;7.480;2023-07-29T10:01:01;24.80;99.90
851;DHT22;412;51.400;7.480;2023-07-29T10:03:27;24.70;99.90
851;DHT22;412;51.400;7.480;2023-07-29T10:05:53;24.60;99.90
851;DHT22;412;51.400;7.480;2023-07-29T10:08:20;24.50;99.90
851;DHT22;412;51.400;7.480;2023-07-29T10:10:50;24.50;99.90
851;DHT22;412;51.400;7.480;2023-07-29T10:13:16;24.30;99.90
851;DHT22;412;51.400;7.480;2023-07-29T10:15:42;24.30;99.90
851;DHT22;412;51.400;7.480;2023-07-29T10:18:12;24.10;99.90
851;DHT22;412;51.400;7.480;2023-07-29T10:20:39;23.90;99.90
851;DHT22;412;51.400;7.480;2023-07-29T10:23:07;23.90;99.90
851;DHT22;412;51.400;7.480;2023-07-29T10:25:44;23.90;99.90
851;DHT22;412;51.400;7.480;2023-07-29T10:28:12;23.90;99.90
851;DHT22;412;51.400;7.480;2023-07-29T10:30:40;23.90;99.90
851;DHT22;412;51.400;7.480;2023-07-29T10:33:06;23.90;99.90
851;DHT22;412;51.400;7.480;2023-07-29T10:35:35;23.90;99.90
851;DHT22;412;51.400;7.480;2023-07-29T10:38:03;23.90;99.90
851;DHT22;412;51.400;7.480;2023-07-29T10:40:56;23.90;99.90
851;DHT22;412;51.400;7.480;2023-07-29T10:43:32;23.80;99.90
851;DHT22;412;51.400;7.480;2023-07-29T10:46:16;23.80;99.90
851;DHT22;412;51.400;7.480;2023-07-29T10:51:36;23.90;99.90
851;DHT22;412;51.400;7.480;2023-07-29T10:54:20;24.10;99.90
851;DHT22;412;51.400;7.480;2023-07-29T10:56:49;24.30;99.90
851;DHT22;412;51.400;7.480;2023-07-29T11:01:50;24.40;99.90
851;DHT22;412;51.400;7.480;2023-07-29T11:12:45;25.10;99.90
851;DHT22;412;51.400;7.480;2023-07-29T11:15:18;25.20;99.90
851;DHT22;412;51.400;7.480;2023-07-29T11:17:47;25.20;99.90
851;DHT22;412;51.400;7.480;2023-07-29T11:20:14;25.30;99.90
851;DHT22;412;51.400;7.480;2023-07-29T11:22:40;25.40;99.90
851;DHT22;412;51.400;7.480;2023-07-29T11:25:11;25.50;99.90
851;DHT22;412;51.400;7.480;2023-07-29T11:27:38;25.60;99.70
851;DHT22;412;51.400;7.480;2023-07-29T11:30:06;25.60;99.80
851;DHT22;412;51.400;7.480;2023-07-29T11:32:34;25.60;99.90
851;DHT22;412;51.400;7.480;2023-07-29T11:35:10;25.60;99.40
851;DHT22;412;51.400;7.480;2023-07-29T11:37:37;25.70;99.90
851;DHT22;412;51.400;7.480;2023-07-29T11:40:04;25.70;99.90
851;DHT22;412;51.400;7.480;2023-07-29T11:42:34;25.70;98.90
851;DHT22;412;51.400;7.480;2023-07-29T11:45:01;25.80;99.90
851;DHT22;412;51.400;7.480;2023-07-29T11:47:27;25.80;99.90
851;DHT22;412;51.400;7.480;2023-07-29T11:49:53;25.90;99.70
851;DHT22;412;51.400;7.480;2023-07-29T11:52:19;25.90;99.00
851;DHT22;412;51.400;7.480;2023-07-29T11:54:49;25.90;99.90
851;DHT22;412;51.400;7.480;2023-07-29T11:57:16;25.80;98.60
851;DHT22;412;51.400;7.480;2023-07-29T11:59:42;25.60;99.60
851;DHT22;412;51.400;7.480;2023-07-29T12:02:13;25.40;99.70
851;DHT22;412;51.400;7.480;2023-07-29T12:04:41;25.30;99.90
851;DHT22;412;51.400;7.480;2023-07-29T12:07:07;25.30;99.90
851;DHT22;412;51.400;7.480;2023-07-29T12:09:36;25.30;99.90
851;DHT22;412;51.400;7.480;2023-07-29T12:12:04;25.30;99.80
851;DHT22;412;51.400;7.480;2023-07-29T12:14:30;25.20;99.90
851;DHT22;412;51.400;7.480;2023-07-29T12:16:56;25.20;99.90
851;DHT22;412;51.400;7.480;2023-07-29T12:19:21;25.10;99.90
851;DHT22;412;51.400;7.480;2023-07-29T12:21:48;25.10;99.90
851;DHT22;412;51.400;7.480;2023-07-29T12:24:14;25.20;99.90
851;DHT22;412;51.400;7.480;2023-07-29T12:26:41;25.20;99.90
851;DHT22;412;51.400;7.480;2023-07-29T12:29:14;25.20;99.90
851;DHT22;412;51.400;7.480;2023-07-29T12:31:40;25.20;99.90
851;DHT22;412;51.400;7.480;2023-07-29T12:34:06;25.20;99.90
851;DHT22;412;51.400;7.480;2023-07-29T12:36:48;25.10;99.90
851;DHT22;412;51.400;7.480;2023-07-29T12:39:22;25.20;99.90
851;DHT22;412;51.400;7.480;2023-07-29T12:41:49;25.30;99.90
851;DHT22;412;51.400;7.480;2023-07-29T12:44:16;25.40;99.90
851;DHT22;412;51.400;7.480;2023-07-29T12:46:42;25.50;99.60
851;DHT22;412;51.400;7.480;2023-07-29T12:49:08;25.40;99.30
851;DHT22;412;51.400;7.480;2023-07-29T12:51:34;25.40;99.90
851;DHT22;412;51.400;7.480;2023-07-29T12:54:01;25.50;99.90
851;DHT22;412;51.400;7.480;2023-07-29T12:56:28;25.50;99.90
851;DHT22;412;51.400;7.480;2023-07-29T12:58:54;25.50;99.70
851;DHT22;412;51.400;7.480;2023-07-29T13:01:20;25.40;99.90
851;DHT22;412;51.400;7.480;2023-07-29T13:03:45;25.30;99.90
851;DHT22;412;51.400;7.480;2023-07-29T13:06:11;25.30;99.40
851;DHT22;412;51.400;7.480;2023-07-29T13:08:37;25.20;99.90
851;DHT22;412;51.400;7.480;2023-07-29T13:11:04;25.20;99.90
851;DHT22;412;51.400;7.480;2023-07-29T13:13:30;25.20;99.90
851;DHT22;412;51.400;7.480;2023-07-29T13:15:57;25.20;99.90
851;DHT22;412;51.400;7.480;2023-07-29T13:18:22;25.30;99.90
851;DHT22;412;51.400;7.480;2023-07-29T13:20:48;25.40;99.90
851;DHT22;412;51.400;7.480;2023-07-29T13:23:15;25.50;99.90
851;DHT22;412;51.400;7.480;2023-07-29T13:25:41;25.60;99.90
851;DHT22;412;51.400;7.480;2023-07-29T13:28:07;25.70;99.90
851;DHT22;412;51.400;7.480;2023-07-29T13:30:33;25.80;99.90
851;DHT22;412;51.400;7.480;2023-07-29T13:32:58;25.80;99.90
851;DHT22;412;51.400;7.480;2023-07-29T13:35:24;25.70;99.90
851;DHT22;412;51.400;7.480;2023-07-29T13:37:51;25.70;99.90
851;DHT22;412;51.400;7.480;2023-07-29T13:40:16;25.60;98.70
851;DHT22;412;51.400;7.480;2023-07-29T13:42:42;25.40;98.40
851;DHT22;412;51.400;7.480;2023-07-29T13:45:08;25.30;98.80
851;DHT22;412;51.400;7.480;2023-07-29T13:47:34;25.30;98.10
851;DHT22;412;51.400;7.480;2023-07-29T13:50:00;25.30;98.50
851;DHT22;412;51.400;7.480;2023-07-29T13:52:26;25.20;98.80
851;DHT22;412;51.400;7.480;2023-07-29T13:54:52;25.20;98.70
851;DHT22;412;51.400;7.480;2023-07-29T13:57:17;25.20;99.60
851;DHT22;412;51.400;7.480;2023-07-29T13:59:43;25.10;99.30
851;DHT22;412;51.400;7.480;2023-07-29T14:02:09;25.10;99.50
851;DHT22;412;51.400;7.480;2023-07-29T14:04:35;25.00;99.40
851;DHT22;412;51.400;7.480;2023-07-29T14:07:01;25.00;99.40
851;DHT22;412;51.400;7.480;2023-07-29T14:09:27;24.90;99.90
851;DHT22;412;51.400;7.480;2023-07-29T14:11:54;24.90;99.90
851;DHT22;412;51.400;7.480;2023-07-29T14:14:20;24.80;99.90
851;DHT22;412;51.400;7.480;2023-07-29T14:16:46;24.80;99.90
851;DHT22;412;51.400;7.480;2023-07-29T14:19:12;24.70;99.90
851;DHT22;412;51.400;7.480;2023-07-29T14:21:38;24.70;99.90
851;DHT22;412;51.400;7.480;2023-07-29T14:24:05;24.60;99.90
851;DHT22;412;51.400;7.480;2023-07-29T14:26:31;24.60;99.90
851;DHT22;412;51.400;7.480;2023-07-29T14:28:56;24.60;99.90
851;DHT22;412;51.400;7.480;2023-07-29T14:31:22;24.50;99.90
851;DHT22;412;51.400;7.480;2023-07-29T14:33:48;24.50;99.90
851;DHT22;412;51.400;7.480;2023-07-29T14:36:15;24.40;99.90
851;DHT22;412;51.400;7.480;2023-07-29T14:38:41;24.30;99.90
851;DHT22;412;51.400;7.480;2023-07-29T14:41:08;24.20;99.90
851;DHT22;412;51.400;7.480;2023-07-29T14:43:34;24.20;99.90
851;DHT22;412;51.400;7.480;2023-07-29T14:46:01;24.20;99.90
851;DHT22;412;51.400;7.480;2023-07-29T14:48:27;24.20;99.90
851;DHT22;412;51.400;7.480;2023-07-29T14:50:54;24.20;99.90
851;DHT22;412;51.400;7.480;2023-07-29T14:53:19;24.20;99.90
851;DHT22;412;51.400;7.480;2023-07-29T14:55:45;24.30;99.90
851;DHT22;412;51.400;7.480;2023-07-29T14:58:11;24.30;99.90
851;DHT22;412;51.400;7.480;2023-07-29T15:00:37;24.40;99.90
851;DHT22;412;51.400;7.480;2023-07-29T15:03:03;24.40;99.90
851;DHT22;412;51.400;7.480;2023-07-29T15:05:28;24.30;99.90
851;DHT22;412;51.400;7.480;2023-07-29T15:07:55;24.30;99.90
851;DHT22;412;51.400;7.480;2023-07-29T15:10:20;24.10;99.90
851;DHT22;412;51.400;7.480;2023-07-29T15:12:49;24.10;99.90
851;DHT22;412;51.400;7.480;2023-07-29T15:15:15;23.90;99.90
851;DHT22;412;51.400;7.480;2023-07-29T15:17:40;23.90;99.90
851;DHT22;412;51.400;7.480;2023-07-29T15:20:06;23.60;99.90
851;DHT22;412;51.400;7.480;2023-07-29T15:22:33;23.50;99.90
851;DHT22;412;51.400;7.480;2023-07-29T15:24:59;23.40;99.90
851;DHT22;412;51.400;7.480;2023-07-29T15:27:30;23.30;99.90
851;DHT22;412;51.400;7.480;2023-07-29T15:29:56;23.30;99.90
851;DHT22;412;51.400;7.480;2023-07-29T15:32:22;23.30;99.90
851;DHT22;412;51.400;7.480;2023-07-29T15:34:48;23.30;99.90
851;DHT22;412;51.400;7.480;2023-07-29T15:37:15;23.30;99.90
851;DHT22;412;51.400;7.480;2023-07-29T15:39:40;23.20;99.90
851;DHT22;412;51.400;7.480;2023-07-29T15:42:07;23.20;99.90
851;DHT22;412;51.400;7.480;2023-07-29T15:44:32;23.10;99.90
851;DHT22;412;51.400;7.480;2023-07-29T15:46:58;23.10;99.90
851;DHT22;412;51.400;7.480;2023-07-29T15:49:24;23.10;99.90
851;DHT22;412;51.400;7.480;2023-07-29T15:51:51;23.10;99.90
851;DHT22;412;51.400;7.480;2023-07-29T15:54:17;23.00;99.90
851;DHT22;412;51.400;7.480;2023-07-29T15:56:42;22.90;99.90
851;DHT22;412;51.400;7.480;2023-07-29T15:59:08;22.90;99.90
851;DHT22;412;51.400;7.480;2023-07-29T16:01:34;22.90;99.90
851;DHT22;412;51.400;7.480;2023-07-29T16:04:00;22.90;99.90
851;DHT22;412;51.400;7.480;2023-07-29T16:06:26;23.00;99.90
851;DHT22;412;51.400;7.480;2023-07-29T16:08:53;23.00;99.90
851;DHT22;412;51.400;7.480;2023-07-29T16:11:19;23.00;99.90
851;DHT22;412;51.400;7.480;2023-07-29T16:13:46;23.00;99.90
851;DHT22;412;51.400;7.480;2023-07-29T16:16:12;23.10;99.90
851;DHT22;412;51.400;7.480;2023-07-29T16:18:38;23.10;99.90
851;DHT22;412;51.400;7.480;2023-07-29T16:21:04;23.20;99.90
851;DHT22;412;51.400;7.480;2023-07-29T16:23:33;23.20;99.90
851;DHT22;412;51.400;7.480;2023-07-29T16:25:59;23.20;99.90
851;DHT22;412;51.400;7.480;2023-07-29T16:28:25;23.20;99.90
851;DHT22;412;51.400;7.480;2023-07-29T16:30:51;23.20;99.90
851;DHT22;412;51.400;7.480;2023-07-29T16:33:17;23.20;99.90
851;DHT22;412;51.400;7.480;2023-07-29T16:35:43;23.20;99.90
851;DHT22;412;51.400;7.480;2023-07-29T16:38:08;23.20;99.90
851;DHT22;412;51.400;7.480;2023-07-29T16:40:34;23.20;99.90
851;DHT22;412;51.400;7.480;2023-07-29T16:43:00;23.20;99.90
851;DHT22;412;51.400;7.480;2023-07-29T16:45:26;23.20;99.90
851;DHT22;412;51.400;7.480;2023-07-29T16:47:56;23.20;99.90
851;DHT22;412;51.400;7.480;2023-07-29T16:50:22;23.10;99.90
851;DHT22;412;51.400;7.480;2023-07-29T16:52:47;23.10;99.90